createdAt,value
2024-03-01T00:00:41.826Z,67381.53
2024-03-01T00:01:38.541Z,67390.13
2024-03-01T00:02:35.363Z,67401.81
2024-03-01T00:03:32.302Z,67374.72
2024-03-01T00:04:29.122Z,67378.63
2024-03-01T00:05:25.824Z,67385.28
2024-03-01T00:06:22.477Z,67386.94
2024-03-01T00:07:19.138Z,67368.03
2024-03-01T00:08:15.796Z,67374.16
2024-03-01T00:09:12.438Z,67397.53
2024-03-01T00:10:10.018Z,67406.56
2024-03-01T00:11:06.976Z,67372.50
2024-03-01T00:12:03.858Z,67362.63
2024-03-01T00:13:00.527Z,67370.25
2024-03-01T00:13:57.128Z,67370.25
2024-03-01T00:14:53.999Z,67383.06
2024-03-01T00:15:50.672Z,67388.19
2024-03-01T00:16:47.372Z,67373.59
2024-03-01T00:17:44.093Z,67344.81
2024-03-01T00:18:40.667Z,67358.03
2024-03-01T00:19:37.277Z,67376.53
2024-03-01T00:20:33.928Z,67374.16
2024-03-01T00:21:30.576Z,67391.41
2024-03-01T00:22:27.636Z,67389.16
2024-03-01T00:23:24.467Z,67399.16
2024-03-01T00:24:21.084Z,67394.16
2024-03-01T00:25:17.958Z,67406.97
2024-03-01T00:26:15.202Z,67393.63
2024-03-01T00:27:11.885Z,67373.59
2024-03-01T00:28:08.528Z,67375.81
2024-03-01T00:29:05.126Z,67378.47
2024-03-01T00:30:03.934Z,67389.59
2024-03-01T00:31:00.545Z,67391.09
2024-03-01T00:31:57.196Z,67376.94
2024-03-01T00:32:53.868Z,67377.06
2024-03-01T00:33:50.584Z,67368.03
2024-03-01T00:34:47.319Z,67371.78
2024-03-01T00:35:45.272Z,67379.59
2024-03-01T00:36:41.930Z,67380.25
2024-03-01T00:37:38.647Z,67378.06
2024-03-01T00:38:35.369Z,67391.41
2024-03-01T00:39:32.245Z,67401.41
2024-03-01T00:40:28.991Z,67411.00
2024-03-01T00:41:26.131Z,67393.63
2024-03-01T00:42:22.752Z,67393.63
2024-03-01T00:43:20.113Z,67380.41
2024-03-01T00:44:16.817Z,67373.59
2024-03-01T00:45:13.512Z,67376.94
2024-03-01T00:46:10.216Z,67375.41
2024-03-01T00:47:07.627Z,67399.72
2024-03-01T00:48:14.887Z,67406.41
2024-03-01T00:49:12.082Z,67412.53
2024-03-01T00:50:09.437Z,67404.72
2024-03-01T00:51:06.466Z,67403.63
2024-03-01T00:52:03.385Z,67396.97
2024-03-01T00:53:00.345Z,67396.97
2024-03-01T00:53:57.045Z,67390.84
2024-03-01T00:54:53.794Z,67386.94
2024-03-01T00:55:50.980Z,67395.44
2024-03-01T00:56:47.740Z,67409.19
2024-03-01T00:57:44.942Z,67385.81
2024-03-01T00:58:41.637Z,67376.94
2024-03-01T00:59:38.556Z,67382.50
2024-03-01T01:00:35.264Z,67395.13
2024-03-01T01:01:31.974Z,67384.16
2024-03-01T01:02:39.893Z,67394.31
2024-03-01T01:03:38.799Z,67390.84
2024-03-01T01:04:35.932Z,67379.59
2024-03-01T01:05:33.053Z,67393.50
2024-03-01T01:06:29.796Z,67381.53
2024-03-01T01:07:26.517Z,67403.75
2024-03-01T01:08:25.571Z,67400.28
2024-03-01T01:09:22.214Z,67415.88
2024-03-01T01:10:19.065Z,67396.25
2024-03-01T01:11:15.780Z,67418.63
2024-03-01T01:12:12.475Z,67411.69
2024-03-01T01:13:09.215Z,67399.59
2024-03-01T01:14:05.975Z,67414.31
2024-03-01T01:15:02.816Z,67391.41
2024-03-01T01:15:59.631Z,67414.75
2024-03-01T01:16:56.429Z,67410.84
2024-03-01T01:17:53.113Z,67403.06
2024-03-01T01:18:50.004Z,67373.72
2024-03-01T01:19:46.775Z,67384.72
2024-03-01T01:20:44.052Z,67385.28
2024-03-01T01:21:40.812Z,67395.84
2024-03-01T01:22:37.440Z,67399.31
2024-03-01T01:23:34.138Z,67420.88
2024-03-01T01:24:30.865Z,67422.41
2024-03-01T01:25:27.659Z,67403.63
2024-03-01T01:26:24.385Z,67393.50
2024-03-01T01:27:21.059Z,67390.84
2024-03-01T01:28:17.859Z,67422.00
2024-03-01T01:29:14.834Z,67403.63
2024-03-01T01:30:12.241Z,67415.31
2024-03-01T01:31:09.577Z,67403.50
2024-03-01T01:32:06.567Z,67416.28
2024-03-01T01:33:03.280Z,67409.75
2024-03-01T01:34:00.114Z,67380.25
2024-03-01T01:34:56.868Z,67369.16
2024-03-01T01:35:54.039Z,67382.50
2024-03-01T01:36:50.760Z,67381.38
2024-03-01T01:37:47.415Z,67379.28
2024-03-01T01:38:44.208Z,67373.59
2024-03-01T01:39:40.867Z,67377.50
2024-03-01T01:40:37.653Z,67388.63
2024-03-01T01:41:36.750Z,67386.53
2024-03-01T01:42:33.604Z,67406.69
2024-03-01T01:43:30.721Z,67374.59
2024-03-01T01:44:27.443Z,67390.28
2024-03-01T01:45:24.092Z,67370.81
2024-03-01T01:46:20.847Z,67383.63
2024-03-01T01:47:18.306Z,67404.72
2024-03-01T01:48:15.359Z,67414.75
2024-03-01T01:49:12.241Z,67406.84
2024-03-01T01:50:10.492Z,67409.59
2024-03-01T01:51:08.158Z,67397.53
2024-03-01T01:52:04.977Z,67400.84
2024-03-01T01:53:12.870Z,67398.19
2024-03-01T01:54:13.704Z,67373.59
2024-03-01T01:55:12.439Z,67376.38
2024-03-01T01:56:09.187Z,67376.94
2024-03-01T01:57:06.122Z,67389.16
2024-03-01T01:58:03.142Z,67394.16
2024-03-01T01:58:59.875Z,67369.84
2024-03-01T01:59:58.666Z,67362.06
2024-03-01T02:00:56.162Z,67358.19
2024-03-01T02:01:53.313Z,67340.63
2024-03-01T02:02:52.119Z,67381.38
2024-03-01T02:03:49.190Z,67371.38
2024-03-01T02:04:46.255Z,67394.16
2024-03-01T02:05:42.995Z,67395.13
2024-03-01T02:06:39.728Z,67385.28
2024-03-01T02:07:38.102Z,67388.06
2024-03-01T02:08:37.041Z,67401.41
2024-03-01T02:09:33.795Z,67391.41
2024-03-01T02:10:30.732Z,67385.13
2024-03-01T02:11:27.577Z,67374.59
2024-03-01T02:12:24.399Z,67368.59
2024-03-01T02:13:24.089Z,67374.16
2024-03-01T02:14:21.627Z,67374.16
2024-03-01T02:15:18.427Z,67391.97
2024-03-01T02:16:15.246Z,67379.16
2024-03-01T02:17:11.994Z,67383.91
2024-03-01T02:18:08.831Z,67386.25
2024-03-01T02:19:12.153Z,67361.66
2024-03-01T02:20:09.862Z,67354.41
2024-03-01T02:21:14.655Z,67349.66
2024-03-01T02:22:18.696Z,67371.38
2024-03-01T02:23:25.565Z,67366.50
2024-03-01T02:24:22.953Z,67358.72
2024-03-01T02:25:19.648Z,67359.72
2024-03-01T02:26:16.396Z,67356.91
2024-03-01T02:27:13.117Z,67382.34
2024-03-01T02:28:09.999Z,67374.28
2024-03-01T02:29:06.647Z,67368.72
2024-03-01T02:30:04.275Z,67351.34
2024-03-01T02:31:01.066Z,67366.50
2024-03-01T02:31:57.721Z,67363.19
2024-03-01T02:32:54.405Z,67362.47
2024-03-01T02:33:51.143Z,67359.72
2024-03-01T02:34:47.878Z,67371.38
2024-03-01T02:35:44.603Z,67374.03
2024-03-01T02:36:41.519Z,67358.59
2024-03-01T02:37:38.616Z,67360.25
2024-03-01T02:38:35.587Z,67368.72
2024-03-01T02:39:32.261Z,67365.81
2024-03-01T02:40:29.213Z,67363.03
2024-03-01T02:41:25.992Z,67365.13
2024-03-01T02:42:22.836Z,67357.75
2024-03-01T02:43:19.532Z,67358.03
2024-03-01T02:44:16.217Z,67361.22
2024-03-01T02:45:12.957Z,67341.75
2024-03-01T02:46:09.646Z,67352.47
2024-03-01T02:47:06.509Z,67344.53
2024-03-01T02:48:04.374Z,67346.75
2024-03-01T02:49:01.104Z,67379.16
2024-03-01T02:49:57.832Z,67363.19
2024-03-01T02:50:54.455Z,67355.25
2024-03-01T02:51:51.180Z,67359.44
2024-03-01T02:52:47.809Z,67365.81
2024-03-01T02:53:47.176Z,67357.34
2024-03-01T02:54:43.777Z,67348.56
2024-03-01T02:55:40.484Z,67338.97
2024-03-01T02:56:37.279Z,67348.72
2024-03-01T02:57:35.037Z,67340.09
2024-03-01T02:58:31.911Z,67338.00
2024-03-01T02:59:28.667Z,67349.09
2024-03-01T03:00:25.764Z,67356.34
2024-03-01T03:01:24.738Z,67351.91
2024-03-01T03:02:21.629Z,67354.16
2024-03-01T03:03:18.402Z,67340.78
2024-03-01T03:04:15.129Z,67346.06
2024-03-01T03:05:12.274Z,67346.75
2024-03-01T03:06:08.987Z,67342.47
2024-03-01T03:07:10.460Z,67350.81
2024-03-01T03:08:08.109Z,67340.09
2024-03-01T03:09:10.651Z,67321.88
2024-03-01T03:10:08.294Z,67328.56
2024-03-01T03:11:05.312Z,67332.44
2024-03-01T03:12:03.001Z,67337.44
2024-03-01T03:13:01.459Z,67352.47
2024-03-01T03:13:58.248Z,67332.44
2024-03-01T03:14:54.858Z,67324.66
2024-03-01T03:15:51.650Z,67336.19
2024-03-01T03:16:52.035Z,67328.00
2024-03-01T03:17:48.910Z,67323.97
2024-03-01T03:18:45.545Z,67316.88
2024-03-01T03:19:43.569Z,67310.63
2024-03-01T03:20:40.213Z,67311.34
2024-03-01T03:21:37.197Z,67326.72
2024-03-01T03:22:33.869Z,67310.22
2024-03-01T03:23:30.586Z,67313.53
2024-03-01T03:24:27.271Z,67312.97
2024-03-01T03:25:24.546Z,67319.09
2024-03-01T03:26:21.260Z,67315.78
2024-03-01T03:27:17.879Z,67342.47
2024-03-01T03:28:16.304Z,67328.00
2024-03-01T03:29:13.174Z,67317.28
2024-03-01T03:30:10.277Z,67302.84
2024-03-01T03:31:07.078Z,67306.88
2024-03-01T03:32:06.820Z,67319.81
2024-03-01T03:33:04.988Z,67334.66
2024-03-01T03:34:01.847Z,67343.13
2024-03-01T03:34:58.521Z,67343.69
2024-03-01T03:35:55.183Z,67344.66
2024-03-01T03:36:51.862Z,67335.91
2024-03-01T03:37:48.625Z,67337.31
2024-03-01T03:38:45.278Z,67316.88
2024-03-01T03:39:41.966Z,67303.13
2024-03-01T03:40:38.978Z,67305.75
2024-03-01T03:41:36.127Z,67318.97
2024-03-01T03:42:32.722Z,67300.34
2024-03-01T03:43:29.427Z,67296.31
2024-03-01T03:44:26.140Z,67288.53
2024-03-01T03:45:22.805Z,67306.31
2024-03-01T03:46:19.952Z,67280.88
2024-03-01T03:47:16.583Z,67316.88
2024-03-01T03:48:13.185Z,67311.88
2024-03-01T03:49:12.108Z,67312.44
2024-03-01T03:50:09.649Z,67233.69
2024-03-01T03:51:06.314Z,67280.22
2024-03-01T03:52:03.311Z,67287.84
2024-03-01T03:52:59.985Z,67288.53
2024-03-01T03:53:57.559Z,67286.88
2024-03-01T03:54:54.227Z,67317.84
2024-03-01T03:55:50.877Z,67281.31
2024-03-01T03:56:47.454Z,67287.72
2024-03-01T03:57:44.949Z,67307.56
2024-03-01T03:58:41.536Z,67313.41
2024-03-01T03:59:38.297Z,67296.31
2024-03-01T04:00:34.950Z,67280.34
2024-03-01T04:01:31.635Z,67281.88
2024-03-01T04:02:28.352Z,67292.00
2024-03-01T04:03:25.123Z,67310.22
2024-03-01T04:04:21.812Z,67273.00
2024-03-01T04:05:18.433Z,67262.41
2024-03-01T04:06:15.677Z,67271.47
2024-03-01T04:07:12.294Z,67284.94
2024-03-01T04:08:08.946Z,67284.09
2024-03-01T04:09:05.528Z,67280.63
2024-03-01T04:10:02.318Z,67265.34
2024-03-01T04:10:59.074Z,67285.06
2024-03-01T04:11:56.832Z,67279.66
2024-03-01T04:12:53.466Z,67269.09
2024-03-01T04:13:50.193Z,67268.53
2024-03-01T04:14:46.897Z,67275.06
2024-03-01T04:15:44.521Z,67271.31
2024-03-01T04:16:41.352Z,67233.28
2024-03-01T04:17:38.392Z,67241.44
2024-03-01T04:18:35.520Z,67245.91
2024-03-01T04:19:32.594Z,67277.97
2024-03-01T04:20:29.259Z,67250.91
2024-03-01T04:21:26.019Z,67238.53
2024-03-01T04:22:22.717Z,67197.59
2024-03-01T04:23:19.396Z,67208.44
2024-03-01T04:24:16.996Z,67195.78
2024-03-01T04:25:13.597Z,67198.41
2024-03-01T04:26:10.852Z,67203.28
2024-03-01T04:27:07.672Z,67208.00
2024-03-01T04:28:04.791Z,67218.97
2024-03-01T04:29:01.484Z,67203.56
2024-03-01T04:29:58.428Z,67195.78
2024-03-01T04:30:55.832Z,67186.91
2024-03-01T04:31:52.767Z,67182.31
2024-03-01T04:32:49.440Z,67178.03
2024-03-01T04:33:48.118Z,67179.13
2024-03-01T04:34:46.013Z,67179.97
2024-03-01T04:35:42.886Z,67176.06
2024-03-01T04:36:40.290Z,67165.81
2024-03-01T04:37:37.055Z,67194.66
2024-03-01T04:38:34.069Z,67165.41
2024-03-01T04:39:31.135Z,67202.31
2024-03-01T04:40:27.691Z,67203.72
2024-03-01T04:41:24.350Z,67179.69
2024-03-01T04:42:21.094Z,67165.81
2024-03-01T04:43:17.711Z,67184.13
2024-03-01T04:44:14.364Z,67200.66
2024-03-01T04:45:11.245Z,67208.28
2024-03-01T04:46:07.949Z,67201.75
2024-03-01T04:47:04.815Z,67174.56
2024-03-01T04:48:01.746Z,67159.84
2024-03-01T04:48:58.595Z,67183.00
2024-03-01T04:49:55.404Z,67192.47
2024-03-01T04:50:52.119Z,67221.47
2024-03-01T04:51:48.774Z,67205.22
2024-03-01T04:52:45.480Z,67181.78
2024-03-01T04:53:42.487Z,67185.78
2024-03-01T04:54:39.298Z,67181.91
2024-03-01T04:55:36.057Z,67160.81
2024-03-01T04:56:32.905Z,67187.88
2024-03-01T04:57:29.582Z,67163.59
2024-03-01T04:58:26.238Z,67166.91
2024-03-01T04:59:22.903Z,67183.00
2024-03-01T05:00:22.742Z,67174.00
2024-03-01T05:01:19.623Z,67168.03
2024-03-01T05:02:16.288Z,67164.13
2024-03-01T05:03:13.737Z,67163.59
2024-03-01T05:04:11.160Z,67181.34
2024-03-01T05:05:11.802Z,67186.75
2024-03-01T05:06:09.995Z,67180.81
2024-03-01T05:07:06.679Z,67178.56
2024-03-01T05:08:04.263Z,67187.16
2024-03-01T05:09:00.999Z,67190.22
2024-03-01T05:09:57.646Z,67203.41
2024-03-01T05:10:54.633Z,67205.22
2024-03-01T05:11:51.498Z,67184.53
2024-03-01T05:12:48.563Z,67201.34
2024-03-01T05:13:45.166Z,67192.47
2024-03-01T05:14:42.375Z,67193.97
2024-03-01T05:15:39.822Z,67195.22
2024-03-01T05:16:36.643Z,67214.66
2024-03-01T05:17:34.018Z,67208.44
2024-03-01T05:18:30.662Z,67188.56
2024-03-01T05:19:27.354Z,67196.91
2024-03-01T05:20:24.108Z,67198.28
2024-03-01T05:21:23.854Z,67169.84
2024-03-01T05:22:20.520Z,67178.28
2024-03-01T05:23:17.150Z,67174.13
2024-03-01T05:24:13.746Z,67181.91
2024-03-01T05:25:17.167Z,67208.28
2024-03-01T05:26:14.280Z,67210.22
2024-03-01T05:27:16.691Z,67211.91
2024-03-01T05:28:13.244Z,67213.97
2024-03-01T05:29:09.878Z,67205.78
2024-03-01T05:30:09.634Z,67194.53
2024-03-01T05:31:14.977Z,67207.44
2024-03-01T05:32:18.008Z,67237.28
2024-03-01T05:33:14.782Z,67212.44
2024-03-01T05:34:11.755Z,67214.81
2024-03-01T05:35:09.274Z,67217.31
2024-03-01T05:36:07.209Z,67205.78
2024-03-01T05:37:04.014Z,67198.00
2024-03-01T05:38:00.743Z,67208.84
2024-03-01T05:38:57.491Z,67205.22
2024-03-01T05:39:54.171Z,67219.09
2024-03-01T05:40:52.658Z,67214.66
2024-03-01T05:41:52.006Z,67211.34
2024-03-01T05:42:48.666Z,67207.44
2024-03-01T05:43:45.300Z,67221.31
2024-03-01T05:44:41.885Z,67221.88
2024-03-01T05:45:38.479Z,67244.09
2024-03-01T05:46:35.104Z,67255.78
2024-03-01T05:47:31.766Z,67249.91
2024-03-01T05:48:28.477Z,67249.66
2024-03-01T05:49:25.234Z,67248.00
2024-03-01T05:50:21.978Z,67246.88
2024-03-01T05:51:18.552Z,67250.63
2024-03-01T05:52:16.361Z,67249.38
2024-03-01T05:53:17.079Z,67259.66
2024-03-01T05:54:14.646Z,67263.97
2024-03-01T05:55:15.355Z,67233.53
2024-03-01T05:56:19.237Z,67243.00
2024-03-01T05:57:17.155Z,67256.59
2024-03-01T05:58:13.864Z,67245.63
2024-03-01T05:59:10.917Z,67245.34
2024-03-01T06:00:26.489Z,67254.66
2024-03-01T06:01:24.434Z,67223.00
2024-03-01T06:02:22.581Z,67221.72
2024-03-01T06:03:19.179Z,67223.56
2024-03-01T06:04:16.038Z,67229.09
2024-03-01T06:05:12.988Z,67235.78
2024-03-01T06:06:10.847Z,67232.97
2024-03-01T06:07:08.650Z,67221.88
2024-03-01T06:08:05.809Z,67222.84
2024-03-01T06:09:02.888Z,67248.53
2024-03-01T06:09:59.583Z,67251.75
2024-03-01T06:10:56.301Z,67275.75
2024-03-01T06:11:52.988Z,67280.22
2024-03-01T06:12:49.584Z,67282.41
2024-03-01T06:13:46.432Z,67280.75
2024-03-01T06:14:43.253Z,67295.75
2024-03-01T06:15:40.269Z,67295.22
2024-03-01T06:16:36.961Z,67307.31
2024-03-01T06:17:34.074Z,67271.16
2024-03-01T06:18:30.740Z,67269.66
2024-03-01T06:19:27.683Z,67291.31
2024-03-01T06:20:24.492Z,67270.63
2024-03-01T06:21:22.006Z,67279.50
2024-03-01T06:22:18.660Z,67273.41
2024-03-01T06:23:15.662Z,67286.31
2024-03-01T06:24:12.754Z,67293.00
2024-03-01T06:25:09.918Z,67298.56
2024-03-01T06:26:06.770Z,67292.44
2024-03-01T06:27:04.148Z,67313.13
2024-03-01T06:28:00.960Z,67312.97
2024-03-01T06:28:57.743Z,67275.75
2024-03-01T06:29:54.330Z,67275.34
2024-03-01T06:30:51.161Z,67271.31
2024-03-01T06:31:48.044Z,67294.09
2024-03-01T06:32:44.897Z,67284.66
2024-03-01T06:33:42.328Z,67303.28
2024-03-01T06:34:39.602Z,67299.50
2024-03-01T06:35:36.373Z,67299.09
2024-03-01T06:36:33.057Z,67315.78
2024-03-01T06:37:29.969Z,67301.88
2024-03-01T06:38:26.629Z,67306.88
2024-03-01T06:39:23.286Z,67329.13
2024-03-01T06:40:20.425Z,67314.66
2024-03-01T06:41:17.151Z,67313.97
2024-03-01T06:42:13.769Z,67306.47
2024-03-01T06:43:10.450Z,67305.91
2024-03-01T06:44:07.550Z,67301.31
2024-03-01T06:45:07.102Z,67307.44
2024-03-01T06:46:08.612Z,67303.41
2024-03-01T06:47:11.311Z,67287.56
2024-03-01T06:48:17.496Z,67304.09
2024-03-01T06:49:15.798Z,67303.66
2024-03-01T06:50:12.506Z,67293.13
2024-03-01T06:51:09.472Z,67298.97
2024-03-01T06:52:06.421Z,67294.78
2024-03-01T06:53:03.124Z,67318.13
2024-03-01T06:53:59.813Z,67330.22
2024-03-01T06:54:57.532Z,67344.66
2024-03-01T06:55:56.337Z,67334.66
2024-03-01T06:56:53.035Z,67368.59
2024-03-01T06:57:49.790Z,67381.81
2024-03-01T06:58:46.396Z,67339.09
2024-03-01T06:59:43.017Z,67333.97
2024-03-01T07:00:39.729Z,67320.22
2024-03-01T07:01:36.852Z,67313.53
2024-03-01T07:02:33.605Z,67312.00
2024-03-01T07:03:30.185Z,67348.44
2024-03-01T07:04:26.804Z,67347.03
2024-03-01T07:05:23.605Z,67337.44
2024-03-01T07:06:20.229Z,67344.66
2024-03-01T07:07:19.651Z,67328.00
2024-03-01T07:08:16.317Z,67321.88
2024-03-01T07:09:13.021Z,67339.09
2024-03-01T07:10:09.643Z,67349.84
2024-03-01T07:11:06.461Z,67357.88
2024-03-01T07:12:03.246Z,67343.00
2024-03-01T07:12:59.909Z,67330.22
2024-03-01T07:13:56.777Z,67335.22
2024-03-01T07:14:53.377Z,67343.56
2024-03-01T07:15:50.010Z,67355.81
2024-03-01T07:16:46.625Z,67351.91
2024-03-01T07:17:43.338Z,67336.88
2024-03-01T07:18:40.086Z,67342.88
2024-03-01T07:19:36.775Z,67375.41
2024-03-01T07:20:33.413Z,67367.47
2024-03-01T07:21:30.047Z,67390.84
2024-03-01T07:22:27.297Z,67352.59
2024-03-01T07:23:23.929Z,67351.75
2024-03-01T07:24:20.609Z,67335.22
2024-03-01T07:25:17.940Z,67336.88
2024-03-01T07:26:14.632Z,67349.84
2024-03-01T07:27:11.226Z,67359.72
2024-03-01T07:28:07.907Z,67365.81
2024-03-01T07:29:04.540Z,67374.28
2024-03-01T07:30:02.195Z,67392.78
2024-03-01T07:30:58.860Z,67360.81
2024-03-01T07:31:55.882Z,67356.06
2024-03-01T07:32:54.576Z,67364.16
2024-03-01T07:33:51.227Z,67354.28
2024-03-01T07:34:47.823Z,67361.91
2024-03-01T07:35:44.505Z,67369.16
2024-03-01T07:36:41.170Z,67346.75
2024-03-01T07:37:38.066Z,67368.03
2024-03-01T07:38:34.724Z,67387.63
2024-03-01T07:39:31.378Z,67406.41
2024-03-01T07:40:28.010Z,67410.31
2024-03-01T07:41:24.797Z,67388.06
2024-03-01T07:42:21.398Z,67372.50
2024-03-01T07:43:18.264Z,67391.81
2024-03-01T07:44:14.998Z,67389.84
2024-03-01T07:45:11.776Z,67390.84
2024-03-01T07:46:08.423Z,67386.94
2024-03-01T07:47:05.385Z,67383.75
2024-03-01T07:48:02.556Z,67409.59
2024-03-01T07:48:59.212Z,67411.97
2024-03-01T07:49:55.862Z,67410.84
2024-03-01T07:50:52.563Z,67412.53
2024-03-01T07:51:52.242Z,67385.81
2024-03-01T07:52:48.902Z,67387.94
2024-03-01T07:53:48.232Z,67393.06
2024-03-01T07:54:44.986Z,67395.84
2024-03-01T07:55:41.667Z,67396.25
2024-03-01T07:56:38.673Z,67409.75
2024-03-01T07:57:35.399Z,67404.19
2024-03-01T07:58:35.196Z,67396.41
2024-03-01T07:59:31.995Z,67398.19
2024-03-01T08:00:28.775Z,67404.72
2024-03-01T08:01:27.075Z,67406.00
2024-03-01T08:02:23.793Z,67419.19
2024-03-01T08:03:20.444Z,67398.06
2024-03-01T08:04:17.203Z,67406.97
2024-03-01T08:05:13.906Z,67395.84
2024-03-01T08:06:10.597Z,67389.16
2024-03-01T08:07:09.127Z,67401.97
2024-03-01T08:08:09.148Z,67390.97
2024-03-01T08:09:11.371Z,67389.03
2024-03-01T08:10:14.857Z,67392.09
2024-03-01T08:11:22.580Z,67387.63
2024-03-01T08:12:21.989Z,67376.38
2024-03-01T08:13:18.886Z,67382.50
2024-03-01T08:14:31.099Z,67384.28
2024-03-01T08:15:29.746Z,67373.59
2024-03-01T08:16:27.228Z,67393.06
2024-03-01T08:17:28.909Z,67386.53
2024-03-01T08:18:26.288Z,67395.84
2024-03-01T08:19:36.683Z,67407.38
2024-03-01T08:21:07.008Z,67371.94
2024-03-01T08:22:16.040Z,67386.94
2024-03-01T08:23:13.253Z,67359.16
2024-03-01T08:24:11.212Z,67361.66
2024-03-01T08:25:10.771Z,67389.16
2024-03-01T08:26:18.058Z,67405.84
2024-03-01T08:27:18.078Z,67385.28
2024-03-01T08:28:21.502Z,67396.97
2024-03-01T08:29:18.876Z,67396.41
2024-03-01T08:30:38.469Z,67396.97
2024-03-01T08:31:36.930Z,67406.28
2024-03-01T08:32:43.633Z,67387.63
2024-03-01T08:33:41.308Z,67375.41
2024-03-01T08:34:53.143Z,67406.97
2024-03-01T08:35:50.276Z,67397.53
2024-03-01T08:36:47.213Z,67396.41
2024-03-01T08:37:44.000Z,67387.63
2024-03-01T08:38:44.776Z,67377.63
2024-03-01T08:39:41.959Z,67386.38
2024-03-01T08:40:58.380Z,67407.94
2024-03-01T08:41:57.221Z,67397.63
2024-03-01T08:42:53.909Z,67391.97
2024-03-01T08:43:50.958Z,67408.06
2024-03-01T08:45:00.664Z,67399.72
2024-03-01T08:46:02.772Z,67384.16
2024-03-01T08:46:59.576Z,67406.00
2024-03-01T08:48:07.679Z,67403.63
2024-03-01T08:49:38.448Z,67443.53
2024-03-01T08:50:42.546Z,67433.66
2024-03-01T08:51:39.204Z,67420.31
2024-03-01T08:52:39.431Z,67427.13
2024-03-01T08:53:54.928Z,67419.19
2024-03-01T08:54:57.058Z,67421.44
2024-03-01T08:55:53.788Z,67427.66
2024-03-01T08:57:06.659Z,67437.00
2024-03-01T08:58:03.518Z,67429.75
2024-03-01T08:59:01.925Z,67407.38
2024-03-01T08:59:58.566Z,67399.59
2024-03-01T09:00:56.955Z,67424.19
2024-03-01T09:01:53.990Z,67437.56
2024-03-01T09:02:50.934Z,67436.03
2024-03-01T09:03:49.804Z,67434.91
2024-03-01T09:04:46.599Z,67444.38
2024-03-01T09:05:43.406Z,67436.03
2024-03-01T09:06:41.205Z,67425.47
2024-03-01T09:07:38.764Z,67411.97
2024-03-01T09:08:37.427Z,67416.97
2024-03-01T09:09:34.189Z,67409.59
2024-03-01T09:10:35.707Z,67423.63
2024-03-01T09:11:33.704Z,67433.78
2024-03-01T09:12:30.381Z,67428.66
2024-03-01T09:13:28.390Z,67428.66
2024-03-01T09:14:30.809Z,67404.72
2024-03-01T09:15:37.465Z,67430.31
2024-03-01T09:16:34.147Z,67437.13
2024-03-01T09:17:34.274Z,67401.97
2024-03-01T09:18:44.930Z,67397.63
2024-03-01T09:19:48.751Z,67394.16
2024-03-01T09:20:48.220Z,67403.63
2024-03-01T09:21:47.870Z,67407.53
2024-03-01T09:22:44.668Z,67411.84
2024-03-01T09:23:41.319Z,67395.28
2024-03-01T09:24:39.976Z,67387.94
2024-03-01T09:25:43.308Z,67422.00
2024-03-01T09:26:40.596Z,67402.38
2024-03-01T09:27:37.319Z,67414.31
2024-03-01T09:28:34.618Z,67411.84
2024-03-01T09:29:38.964Z,67405.44
2024-03-01T09:30:35.719Z,67404.88
2024-03-01T09:31:33.435Z,67429.75
2024-03-01T09:32:34.145Z,67405.28
2024-03-01T09:33:31.173Z,67428.66
2024-03-01T09:34:33.669Z,67429.19
2024-03-01T09:35:31.222Z,67424.75
2024-03-01T09:36:27.956Z,67420.31
2024-03-01T09:37:24.799Z,67414.75
2024-03-01T09:38:26.535Z,67401.41
2024-03-01T09:39:23.237Z,67411.56
2024-03-01T09:40:34.935Z,67427.66
2024-03-01T09:41:45.105Z,67418.22
2024-03-01T09:42:56.683Z,67434.91
2024-03-01T09:44:13.389Z,67443.66
2024-03-01T09:45:10.107Z,67456.47
2024-03-01T09:46:42.284Z,67477.63
2024-03-01T09:48:06.565Z,67433.38
2024-03-01T09:49:45.605Z,67469.28
2024-03-01T09:51:05.694Z,67441.47
2024-03-01T09:52:21.288Z,67454.94
2024-03-01T09:53:27.157Z,67451.47
2024-03-01T09:54:31.464Z,67458.56
2024-03-01T09:55:42.679Z,67455.91
2024-03-01T09:56:49.568Z,67459.25
2024-03-01T09:58:04.356Z,67490.13
2024-03-01T09:59:07.039Z,67487.63
2024-03-01T10:00:07.304Z,67479.97
2024-03-01T10:01:27.875Z,67511.00
2024-03-01T10:02:34.427Z,67530.50
2024-03-01T10:03:34.357Z,67508.78
2024-03-01T10:04:41.742Z,67511.00
2024-03-01T10:05:55.442Z,67496.25
2024-03-01T10:07:27.394Z,67499.31
2024-03-01T10:08:36.478Z,67499.47
2024-03-01T10:10:02.079Z,67487.06
2024-03-01T10:11:13.376Z,67484.97
2024-03-01T10:12:28.701Z,67503.91
2024-03-01T10:13:36.887Z,67495.44
2024-03-01T10:14:52.444Z,67519.91
2024-03-01T10:16:14.721Z,67523.94
2024-03-01T10:17:34.489Z,67524.91
2024-03-01T10:18:47.766Z,67526.72
2024-03-01T10:20:07.358Z,67519.34
2024-03-01T10:21:30.328Z,67520.59
2024-03-01T10:22:43.726Z,67501.13
2024-03-01T10:23:49.291Z,67516.00
2024-03-01T10:25:12.409Z,67507.13
2024-03-01T10:26:31.319Z,67510.44
2024-03-01T10:27:31.219Z,67528.25
2024-03-01T10:28:39.782Z,67545.66
2024-03-01T10:29:47.738Z,67543.28
2024-03-01T10:30:58.156Z,67526.72
2024-03-01T10:31:54.720Z,67522.84
2024-03-01T10:33:21.488Z,67551.22
2024-03-01T10:34:30.326Z,67543.84
2024-03-01T10:35:39.189Z,67549.00
2024-03-01T10:36:49.987Z,67546.50
2024-03-01T10:38:09.038Z,67537.16
2024-03-01T10:39:27.388Z,67538.84
2024-03-01T10:40:26.200Z,67500.44
2024-03-01T10:41:46.335Z,67530.63
2024-03-01T10:42:47.190Z,67529.94
2024-03-01T10:43:53.134Z,67536.06
2024-03-01T10:45:07.190Z,67513.78
2024-03-01T10:46:13.613Z,67525.59
2024-03-01T10:47:23.117Z,67503.22
2024-03-01T10:48:19.838Z,67516.56
2024-03-01T10:49:47.206Z,67508.91
2024-03-01T10:50:56.631Z,67533.28
2024-03-01T10:51:58.449Z,67544.97
2024-03-01T10:53:03.475Z,67519.34
2024-03-01T10:54:05.371Z,67516.00
2024-03-01T10:55:06.848Z,67527.00
2024-03-01T10:56:07.235Z,67507.66
2024-03-01T10:57:08.626Z,67514.91
2024-03-01T10:58:08.019Z,67520.75
2024-03-01T10:59:15.911Z,67529.94
2024-03-01T11:00:14.410Z,67538.97
2024-03-01T11:01:29.103Z,67511.56
2024-03-01T11:02:30.959Z,67523.94
2024-03-01T11:03:27.568Z,67542.72
2024-03-01T11:04:34.530Z,67480.09
2024-03-01T11:05:53.469Z,67528.53
2024-03-01T11:07:10.318Z,67539.97
2024-03-01T11:08:22.298Z,67517.69
2024-03-01T11:09:31.007Z,67523.25
2024-03-01T11:10:40.960Z,67532.16
2024-03-01T11:11:52.148Z,67527.84
2024-03-01T11:13:03.270Z,67514.34
2024-03-01T11:14:03.665Z,67508.78
2024-03-01T11:15:22.271Z,67527.84
2024-03-01T11:16:24.791Z,67547.47
2024-03-01T11:17:26.643Z,67543.28
2024-03-01T11:18:31.861Z,67553.47
2024-03-01T11:19:33.246Z,67573.38
2024-03-01T11:20:35.893Z,67572.25
2024-03-01T11:21:33.837Z,67546.09
2024-03-01T11:22:32.886Z,67534.94
2024-03-01T11:23:41.068Z,67545.53
2024-03-01T11:24:44.665Z,67550.53
2024-03-01T11:26:22.284Z,67555.56
2024-03-01T11:27:27.158Z,67526.31
2024-03-01T11:28:26.004Z,67546.66
2024-03-01T11:29:54.427Z,67548.31
2024-03-01T11:30:55.557Z,67549.00
2024-03-01T11:32:07.584Z,67550.38
2024-03-01T11:33:05.191Z,67566.41
2024-03-01T11:34:06.697Z,67557.81
2024-03-01T11:35:23.902Z,67542.72
2024-03-01T11:36:23.293Z,67565.16
2024-03-01T11:37:26.044Z,67578.94
2024-03-01T11:38:41.015Z,67605.28
2024-03-01T11:39:50.303Z,67653.03
2024-03-01T11:40:53.159Z,67632.56
2024-03-01T11:42:27.817Z,67616.97